Time;durP1;ratioP1;P1;durP2;ratioP2;P2;SDS_P1;SDS_P2;PMS_P1;PMS_P2;Temp;Humidity;BMP_temperature;BMP_pressure;BME280_temperature;BME280_humidity;BME280_pressure;Samples;Min_cycle;Max_cycle;Signal;HPM_P1;HPM_P2
2022/03/15 00:01:55;;;;;;;17.95;7.80;;;;;;;;;;4347697;32;19939;-77
2022/03/15 00:04:21;;;;;;;;;;;;;;;;;;4347314;33;20378;-76
2022/03/15 00:06:46;;;;;;;15.73;6.82;;;;;;;;;;4345244;32;19954;-76
2022/03/15 00:09:11;;;;;;;;;;;;;;;;;;4345544;33;20128;-77
2022/03/15 00:11:40;;;;;;;12.57;6.65;;;;;;;;;;4345801;33;19934;-76
2022/03/15 00:14:05;;;;;;;10.93;7.15;;;;;;;;;;4332066;33;20069;-77
2022/03/15 00:16:31;;;;;;;;;;;;;;;;;;4333393;33;20469;-76
2022/03/15 00:18:57;;;;;;;13.90;6.07;;;;;;;;;;4344680;33;19976;-78
2022/03/15 00:21:23;;;;;;;14.65;6.97;;;;;;;;;;4333810;33;20170;-77
2022/03/15 00:23:48;;;;;;;;;;;;;;;;;;4332376;33;20087;-77
2022/03/15 00:26:13;;;;;;;11.60;5.75;;;;;;;;;;4344332;33;19999;-75
2022/03/15 00:28:38;;;;;;;;;;;;;;;;;;4346193;33;20128;-76
2022/03/15 00:31:04;;;;;;;13.70;6.20;;;;;;;;;;4344424;33;19939;-77
2022/03/15 00:33:30;;;;;;;;;;;;;;;;;;4347276;33;20472;-76
2022/03/15 00:35:55;;;;;;;12.20;5.85;;;;;;;;;;4344305;33;19931;-78
2022/03/15 00:38:20;;;;;;;;;;;;;;;;;;4332876;33;20031;-77
2022/03/15 00:40:46;;;;;;;13.62;6.25;;;;;;;;;;4344499;33;19953;-77
2022/03/15 00:43:11;;;;;;;;;;;;;;;;;;4346821;33;20203;-76
2022/03/15 00:45:36;;;;;;;16.23;6.18;;;;;;;;;;4345241;33;19977;-77
2022/03/15 00:48:01;;;;;;;;;;;;;;;;;;4333868;33;20506;-77
2022/03/15 00:50:32;;;;;;;12.23;6.40;;;;;;;;;;4344933;33;19942;-76
2022/03/15 00:52:59;;;;;;;14.35;6.57;;;;;;;;;;4345359;33;20083;-77
2022/03/15 00:55:25;;;;;;;14.18;6.95;;;;;;;;;;4331849;33;20051;-76
2022/03/15 00:57:50;;;;;;;;;;;;;;;;;;4347217;33;20118;-76
2022/03/15 01:00:16;;;;;;;21.25;7.15;;;;;;;;;;4344674;33;19939;-76
2022/03/15 01:02:41;;;;;;;;;;;;;;;;;;4332330;33;20595;-77
2022/03/15 01:05:06;;;;;;;13.13;7.25;;;;;;;;;;4344938;33;19946;-77
2022/03/15 01:07:31;;;;;;;;;;;;;;;;;;4341902;33;20039;-76
2022/03/15 01:09:57;;;;;;;17.95;7.82;;;;;;;;;;4358546;32;19939;-77
2022/03/15 01:12:23;;;;;;;;;;;;;;;;;;4355843;33;20149;-76
2022/03/15 01:14:48;;;;;;;17.73;7.65;;;;;;;;;;4344112;33;19938;-77
2022/03/15 01:17:13;;;;;;;;;;;;;;;;;;4331901;33;20027;-77
2022/03/15 01:19:39;;;;;;;16.98;7.80;;;;;;;;;;4343835;33;20334;-76
2022/03/15 01:22:04;;;;;;;;;;;;;;;;;;4331720;33;20059;-77
2022/03/15 01:24:29;;;;;;;17.17;8.90;;;;;;;;;;4332457;33;19998;-76
2022/03/15 01:26:56;;;;;;;;;;;;;;;;;;4345549;33;20124;-75
2022/03/15 01:29:22;;;;;;;21.37;8.48;;;;;;;;;;4331730;33;19973;-76
2022/03/15 01:31:47;;;;;;;;;;;;;;;;;;4331786;33;20466;-76
2022/03/15 01:34:12;;;;;;;18.75;8.95;;;;;;;;;;4331384;33;19958;-76
2022/03/15 01:36:37;;;;;;;;;;;;;;;;;;4331801;33;20214;-77
2022/03/15 01:39:04;;;;;;;20.42;9.98;;;;;;;;;;4363152;27;20011;-81
2022/03/15 01:41:29;;;;;;;20.95;9.52;;;;;;;;;;4361994;32;20173;-81
2022/03/15 01:43:55;;;;;;;;;;;;;;;;;;4375213;32;20425;-80
2022/03/15 01:46:20;;;;;;;20.30;10.27;;;;;;;;;;4375012;32;19949;-81
2022/03/15 01:48:45;;;;;;;;;;;;;;;;;;4375613;32;20352;-81
2022/03/15 01:51:13;;;;;;;16.40;9.55;;;;;;;;;;4375331;32;19972;-81
2022/03/15 01:53:38;;;;;;;24.27;8.85;;;;;;;;;;4374808;32;20119;-80
2022/03/15 01:56:04;;;;;;;;;;;;;;;;;;4375814;32;20023;-81
2022/03/15 01:58:29;;;;;;;28.92;11.23;;;;;;;;;;4375247;32;19934;-80
2022/03/15 02:00:54;;;;;;;;;;;;;;;;;;4360823;32;20123;-80
2022/03/15 02:03:19;;;;;;;23.67;11.68;;;;;;;;;;4374736;32;19948;-80
2022/03/15 02:05:44;;;;;;;;;;;;;;;;;;4375330;32;20057;-79
2022/03/15 02:08:13;;;;;;;36.58;12.88;;;;;;;;;;4375127;32;19942;-80
2022/03/15 02:10:39;;;;;;;23.48;11.85;;;;;;;;;;4374926;32;20508;-81
2022/03/15 02:13:04;;;;;;;;;;;;;;;;;;4376138;32;20084;-81
2022/03/15 02:15:29;;;;;;;24.35;12.85;;;;;;;;;;4375268;32;19972;-80
2022/03/15 02:17:54;;;;;;;;;;;;;;;;;;4375352;32;20115;-81
2022/03/15 02:20:20;;;;;;;23.30;12.73;;;;;;;;;;4377614;32;20287;-81
2022/03/15 02:22:45;;;;;;;;;;;;;;;;;;4378449;32;20404;-80
2022/03/15 02:25:10;;;;;;;33.80;15.68;;;;;;;;;;4377261;32;19934;-80
2022/03/15 02:27:35;;;;;;;;;;;;;;;;;;4378168;32;20023;-80
2022/03/15 02:30:00;;;;;;;29.98;13.70;;;;;;;;;;4377327;32;20299;-81
2022/03/15 02:32:26;;;;;;;;;;;;;;;;;;4378035;32;20097;-80
2022/03/15 02:34:51;;;;;;;35.13;15.48;;;;;;;;;;4376137;32;19938;-80
2022/03/15 02:37:16;;;;;;;;;;;;;;;;;;4378116;32;20237;-80
2022/03/15 02:39:42;;;;;;;29.85;15.40;;;;;;;;;;4377201;32;20020;-80
2022/03/15 02:42:07;;;;;;;;;;;;;;;;;;4377652;32;20134;-80
2022/03/15 02:44:32;;;;;;;30.67;16.58;;;;;;;;;;4363477;32;20349;-80
2022/03/15 02:46:57;;;;;;;;;;;;;;;;;;4378009;32;20027;-80
2022/03/15 02:49:22;;;;;;;34.15;16.37;;;;;;;;;;4377479;32;20003;-80
2022/03/15 02:51:47;;;;;;;;;;;;;;;;;;4377746;32;20131;-81
2022/03/15 02:54:13;;;;;;;36.55;17.08;;;;;;;;;;4377538;32;20026;-81
2022/03/15 02:56:47;;;;;;;;;;;;;;;;;;4377489;32;20262;-81
2022/03/15 02:59:15;;;;;;;42.58;20.05;;;;;;;;;;4377584;32;20033;-80
2022/03/15 03:01:41;;;;;;;31.73;18.35;;;;;;;;;;4376892;32;20070;-79
2022/03/15 03:04:07;;;;;;;;;;;;;;;;;;4377811;32;20027;-80
2022/03/15 03:06:32;;;;;;;37.08;18.62;;;;;;;;;;4376556;32;20138;-80
2022/03/15 03:08:57;;;;;;;;;;;;;;;;;;4376617;32;20026;-81
2022/03/15 03:11:23;;;;;;;40.78;18.87;;;;;;;;;;4372758;32;19988;-81
2022/03/15 03:13:48;;;;;;;;;;;;;;;;;;4341604;33;20027;-81
2022/03/15 03:16:14;;;;;;;40.12;20.15;;;;;;;;;;4359029;32;20046;-80
2022/03/15 03:18:39;;;;;;;;;;;;;;;;;;4348589;33;20031;-80
2022/03/15 03:21:06;;;;;;;37.90;19.70;;;;;;;;;;4347992;33;19992;-81
2022/03/15 03:23:32;;;;;;;42.17;22.20;;;;;;;;;;4362442;32;20054;-81
2022/03/15 03:25:59;;;;;;;50.72;23.90;;;;;;;;;;4362014;32;20368;-81
2022/03/15 03:28:24;;;;;;;36.47;20.88;;;;;;;;;;4361337;32;20421;-81
2022/03/15 03:30:50;;;;;;;;;;;;;;;;;;4361782;32;20078;-81
2022/03/15 03:33:16;;;;;;;43.03;22.40;;;;;;;;;;4362680;32;19958;-82
2022/03/15 03:35:43;;;;;;;44.45;21.00;;;;;;;;;;4362606;32;20053;-82
2022/03/15 03:38:08;;;;;;;48.10;22.45;;;;;;;;;;4361948;32;20027;-82
2022/03/15 03:40:33;;;;;;;;;;;;;;;;;;4362767;32;20085;-81
2022/03/15 03:42:58;;;;;;;41.83;22.25;;;;;;;;;;4372019;32;19946;-81
2022/03/15 03:45:24;;;;;;;;;;;;;;;;;;4364088;32;20154;-81
2022/03/15 03:47:49;;;;;;;42.60;22.87;;;;;;;;;;4360953;32;20387;-81
2022/03/15 03:50:14;;;;;;;;;;;;;;;;;;4370283;32;20086;-81
2022/03/15 03:52:39;;;;;;;37.05;22.15;;;;;;;;;;4377378;32;19953;-79
2022/03/15 03:55:04;;;;;;;;;;;;;;;;;;4376560;32;20072;-80
2022/03/15 03:57:30;;;;;;;46.03;24.17;;;;;;;;;;4376458;32;20339;-80
2022/03/15 03:59:55;;;;;;;;;;;;;;;;;;4376715;32;20026;-80
2022/03/15 04:02:20;;;;;;;43.15;24.60;;;;;;;;;;4363006;32;19984;-80
2022/03/15 04:04:47;;;;;;;;;;;;;;;;;;4376601;32;20119;-79
2022/03/15 04:07:12;;;;;;;50.25;27.27;;;;;;;;;;4362983;32;19985;-80
2022/03/15 04:09:37;;;;;;;;;;;;;;;;;;4363481;32;20022;-82
2022/03/15 04:12:05;;;;;;;45.35;26.95;;;;;;;;;;4376306;32;20006;-80
2022/03/15 04:14:31;;;;;;;46.05;26.55;;;;;;;;;;4376274;32;20149;-81
2022/03/15 04:16:56;;;;;;;;;;;;;;;;;;4362699;32;20027;-80
2022/03/15 04:19:21;;;;;;;56.33;28.55;;;;;;;;;;4375657;32;20007;-81
2022/03/15 04:21:46;;;;;;;;;;;;;;;;;;4375907;32;20432;-81
2022/03/15 04:24:14;;;;;;;50.90;27.02;;;;;;;;;;4375584;32;19934;-80
2022/03/15 04:26:40;;;;;;;46.35;27.25;;;;;;;;;;4375630;32;20126;-79
2022/03/15 04:29:06;;;;;;;;;;;;;;;;;;4375721;32;20053;-81
2022/03/15 04:31:31;;;;;;;45.15;27.08;;;;;;;;;;4375985;32;19941;-81
2022/03/15 04:33:56;;;;;;;;;;;;;;;;;;4362601;32;20027;-81
2022/03/15 04:36:21;;;;;;;52.97;28.73;;;;;;;;;;4375456;32;19953;-80
2022/03/15 04:38:46;;;;;;;;;;;;;;;;;;4362152;32;20127;-80
2022/03/15 04:41:12;;;;;;;50.28;26.85;;;;;;;;;;4374946;32;20037;-81
2022/03/15 04:43:37;;;;;;;;;;;;;;;;;;4376340;32;20389;-80
2022/03/15 04:46:02;;;;;;;50.58;28.12;;;;;;;;;;4375237;32;19938;-81
2022/03/15 04:48:27;;;;;;;;;;;;;;;;;;4376931;32;20363;-81
2022/03/15 04:50:53;;;;;;;51.30;27.08;;;;;;;;;;4375737;32;20373;-80
2022/03/15 04:53:18;;;;;;;;;;;;;;;;;;4362442;32;20084;-81
2022/03/15 04:55:44;;;;;;;53.00;29.77;;;;;;;;;;4375490;32;20353;-79
2022/03/15 04:58:09;;;;;;;;;;;;;;;;;;4375511;32;20454;-80
2022/03/15 05:00:35;;;;;;;53.08;28.55;;;;;;;;;;4375048;32;19945;-79
2022/03/15 05:03:00;;;;;;;;;;;;;;;;;;4376182;32;20425;-81
2022/03/15 05:05:25;;;;;;;53.17;29.37;;;;;;;;;;4376354;32;19934;-82
2022/03/15 05:07:50;;;;;;;;;;;;;;;;;;4375774;32;20102;-80
2022/03/15 05:13:00;;;;;;;49.58;29.40;;;;;;;;;;4376133;32;20168;-81
2022/03/15 05:15:26;;;;;;;58.90;30.73;;;;;;;;;;4375154;32;20364;-78
2022/03/15 05:17:51;;;;;;;;;;;;;;;;;;4375826;32;20023;-80
2022/03/15 05:20:17;;;;;;;60.30;30.15;;;;;;;;;;4375492;32;19942;-79
2022/03/15 05:22:46;;;;;;;52.70;31.25;;;;;;;;;;4374738;32;20192;-79
2022/03/15 05:25:13;;;;;;;51.58;27.45;;;;;;;;;;4375075;32;20031;-80
2022/03/15 05:27:38;;;;;;;52.58;29.52;;;;;;;;;;4375150;32;20030;-81
2022/03/15 05:30:03;;;;;;;;;;;;;;;;;;4375804;32;20062;-80
2022/03/15 05:32:28;;;;;;;42.20;26.35;;;;;;;;;;4373969;32;19945;-81
2022/03/15 05:34:53;;;;;;;;;;;;;;;;;;4372313;32;20123;-80
2022/03/15 05:37:19;;;;;;;47.47;24.73;;;;;;;;;;4375607;32;19942;-79
2022/03/15 05:39:44;;;;;;;;;;;;;;;;;;4374856;32;20428;-76
2022/03/15 05:42:12;;;;;;;53.87;26.23;;;;;;;;;;4374492;32;19939;-79
2022/03/15 05:44:37;;;;;;;41.00;24.67;;;;;;;;;;4361438;32;20023;-79
2022/03/15 05:47:02;;;;;;;;;;;;;;;;;;4375378;32;20023;-80
2022/03/15 05:49:28;;;;;;;53.13;24.63;;;;;;;;;;4374734;32;19938;-80
2022/03/15 05:51:53;;;;;;;;;;;;;;;;;;4375410;32;20480;-80
2022/03/15 05:54:18;;;;;;;45.72;23.02;;;;;;;;;;4377178;32;19939;-80
2022/03/15 05:56:44;;;;;;;;;;;;;;;;;;4364878;32;20132;-80
2022/03/15 05:59:09;;;;;;;41.58;23.42;;;;;;;;;;4364424;32;19938;-79
2022/03/15 06:01:34;;;;;;;;;;;;;;;;;;4364287;32;20036;-81
2022/03/15 06:04:00;;;;;;;31.48;20.75;;;;;;;;;;4377605;32;20276;-82
2022/03/15 06:06:25;;;;;;;;;;;;;;;;;;4378585;32;20184;-77
2022/03/15 06:08:51;;;;;;;43.15;21.20;;;;;;;;;;4379246;32;19947;-81
2022/03/15 06:11:19;;;;;;;38.35;21.90;;;;;;;;;;4365218;32;20069;-80
2022/03/15 06:13:47;;;;;;;47.95;24.27;;;;;;;;;;4379602;32;20080;-78
2022/03/15 06:16:12;;;;;;;43.72;24.75;;;;;;;;;;4380026;32;20096;-80
2022/03/15 06:18:38;;;;;;;;;;;;;;;;;;4365406;32;20035;-79
2022/03/15 06:21:03;;;;;;;35.90;23.27;;;;;;;;;;4377559;32;19981;-80
2022/03/15 06:23:28;;;;;;;;;;;;;;;;;;4365344;32;20120;-80
2022/03/15 06:25:53;;;;;;;37.60;23.25;;;;;;;;;;4372437;32;19947;-80
2022/03/15 06:28:19;;;;;;;;;;;;;;;;;;4363040;32;20047;-79
2022/03/15 06:30:44;;;;;;;42.20;22.73;;;;;;;;;;4349203;33;19965;-80
2022/03/15 06:33:10;;;;;;;;;;;;;;;;;;4389478;32;20027;-80
2022/03/15 06:35:35;;;;;;;42.55;23.92;;;;;;;;;;4378434;32;19946;-79
2022/03/15 06:38:01;;;;;;;;;;;;;;;;;;4391591;32;20141;-79
2022/03/15 06:40:26;;;;;;;49.38;23.95;;;;;;;;;;4392053;32;19934;-79
2022/03/15 06:42:51;;;;;;;;;;;;;;;;;;4393196;32;20035;-80
2022/03/15 06:45:17;;;;;;;40.45;22.58;;;;;;;;;;4392125;32;19933;-77
2022/03/15 06:47:42;;;;;;;;;;;;;;;;;;4390957;32;20084;-78
2022/03/15 06:50:12;;;;;;;38.42;22.87;;;;;;;;;;4391640;32;19968;-80
2022/03/15 06:52:38;;;;;;;45.53;23.33;;;;;;;;;;4388044;32;20087;-80
2022/03/15 06:55:03;;;;;;;;;;;;;;;;;;4390775;32;20022;-77
2022/03/15 06:57:29;;;;;;;36.00;21.87;;;;;;;;;;4391890;32;20296;-80
2022/03/15 06:59:56;;;;;;;33.40;21.37;;;;;;;;;;4390628;32;20056;-80
2022/03/15 07:02:21;;;;;;;48.63;22.00;;;;;;;;;;4378035;32;20030;-79
2022/03/15 07:04:57;;;;;;;;;;;;;;;;;;;;;
2022/03/15 07:07:24;;;;;;;43.35;21.95;;;;;;;;;;4392009;32;19984;-81
2022/03/15 07:09:50;;;;;;;42.30;22.40;;;;;;;;;;4391111;32;20042;-79
2022/03/15 07:12:15;;;;;;;;;;;;;;;;;;4391752;32;20022;-79
2022/03/15 07:14:40;;;;;;;43.47;23.42;;;;;;;;;;4377454;32;19980;-81
2022/03/15 07:17:05;;;;;;;;;;;;;;;;;;4392413;32;20031;-79
2022/03/15 07:19:31;;;;;;;45.83;24.55;;;;;;;;;;4391409;32;19972;-79
2022/03/15 07:21:56;;;;;;;;;;;;;;;;;;4391593;32;20156;-79
2022/03/15 07:24:21;;;;;;;37.90;24.32;;;;;;;;;;4388470;32;20025;-80
2022/03/15 07:26:46;;;;;;;;;;;;;;;;;;4376033;32;20073;-77
2022/03/15 07:29:12;;;;;;;70.43;37.42;;;;;;;;;;4376922;32;19999;-80
2022/03/15 07:31:37;;;;;;;;;;;;;;;;;;4377700;32;20317;-79
2022/03/15 07:34:02;;;;;;;44.55;26.48;;;;;;;;;;4391658;32;19954;-79
2022/03/15 07:36:28;;;;;;;;;;;;;;;;;;4391424;32;20325;-80
2022/03/15 07:38:53;;;;;;;42.30;24.55;;;;;;;;;;4391033;32;19960;-78
2022/03/15 07:41:21;;;;;;;;;;;;;;;;;;4391763;32;20014;-79
2022/03/15 07:43:47;;;;;;;43.63;25.20;;;;;;;;;;4391211;32;19942;-79
2022/03/15 07:46:12;;;;;;;;;;;;;;;;;;4378865;32;20451;-79
2022/03/15 07:48:37;;;;;;;38.90;24.00;;;;;;;;;;4375199;32;19976;-77
2022/03/15 07:51:02;;;;;;;;;;;;;;;;;;4384861;32;20170;-79
2022/03/15 07:53:28;;;;;;;42.92;24.58;;;;;;;;;;4387445;32;19948;-79
2022/03/15 07:55:53;;;;;;;;;;;;;;;;;;4376211;32;20023;-79
2022/03/15 07:58:18;;;;;;;40.85;22.70;;;;;;;;;;4385513;32;19934;-80
2022/03/15 08:00:43;;;;;;;;;;;;;;;;;;4391537;32;20026;-81
2022/03/15 08:03:08;;;;;;;48.97;25.10;;;;;;;;;;4390851;32;19949;-79
2022/03/15 08:05:33;;;;;;;;;;;;;;;;;;4391751;32;20144;-80
2022/03/15 08:07:59;;;;;;;43.70;23.55;;;;;;;;;;4380077;32;19956;-80
2022/03/15 08:10:24;;;;;;;;;;;;;;;;;;4376596;32;20513;-81
2022/03/15 08:12:52;;;;;;;40.22;22.67;;;;;;;;;;4375912;32;19946;-77
2022/03/15 08:15:17;;;;;;;46.33;25.88;;;;;;;;;;4375681;32;20100;-80
2022/03/15 08:17:42;;;;;;;;;;;;;;;;;;4375857;32;20500;-79
2022/03/15 08:20:09;;;;;;;33.30;23.45;;;;;;;;;;4375560;32;19939;-81
2022/03/15 08:22:34;;;;;;;41.03;23.23;;;;;;;;;;4375669;32;20023;-79
2022/03/15 08:25:00;;;;;;;;;;;;;;;;;;4388346;32;20387;-77
2022/03/15 08:27:25;;;;;;;33.95;21.95;;;;;;;;;;4376569;32;19975;-81
2022/03/15 08:29:50;;;;;;;;;;;;;;;;;;4376917;32;20436;-79
2022/03/15 08:32:16;;;;;;;40.75;23.12;;;;;;;;;;4391298;32;20304;-81
2022/03/15 08:34:42;;;;;;;;;;;;;;;;;;4389589;32;20080;-80
2022/03/15 08:37:07;;;;;;;39.58;22.25;;;;;;;;;;4390963;32;19975;-80
2022/03/15 08:39:32;;;;;;;;;;;;;;;;;;4376937;32;20436;-79
2022/03/15 08:41:58;;;;;;;41.42;21.45;;;;;;;;;;4390551;32;20287;-81
2022/03/15 08:44:23;;;;;;;;;;;;;;;;;;4390817;32;20042;-79
2022/03/15 08:46:49;;;;;;;42.28;25.30;;;;;;;;;;4376511;32;19938;-77
2022/03/15 08:49:14;;;;;;;;;;;;;;;;;;4390537;32;20215;-79
2022/03/15 08:51:40;;;;;;;37.47;18.87;;;;;;;;;;4390195;32;19957;-80
2022/03/15 08:54:05;;;;;;;;;;;;;;;;;;4391003;32;20081;-79
2022/03/15 08:56:31;;;;;;;39.55;19.12;;;;;;;;;;4390179;32;19933;-80
2022/03/15 08:59:02;;;;;;;44.30;21.83;;;;;;;;;;4390565;32;20173;-80
2022/03/15 09:01:27;;;;;;;37.20;17.52;;;;;;;;;;4393383;32;20305;-82
2022/03/15 09:03:52;;;;;;;;;;;;;;;;;;4396549;32;20062;-79
2022/03/15 09:06:20;;;;;;;39.42;19.48;;;;;;;;;;4391561;32;20350;-81
2022/03/15 09:08:47;;;;;;;28.95;16.83;;;;;;;;;;4391281;32;20076;-80
2022/03/15 09:11:12;;;;;;;31.35;19.98;;;;;;;;;;4391562;32;20026;-81
2022/03/15 09:13:42;;;;;;;;;;;;;;;;;;4392148;32;20057;-80
2022/03/15 09:16:08;;;;;;;27.48;19.10;;;;;;;;;;4384526;32;19956;-81
2022/03/15 09:18:33;;;;;;;;;;;;;;;;;;4376126;32;20027;-82
2022/03/15 09:21:01;;;;;;;33.25;21.45;;;;;;;;;;4376117;32;20267;-79
2022/03/15 09:23:26;;;;;;;45.28;25.23;;;;;;;;;;4376127;32;20123;-80
2022/03/15 09:25:51;;;;;;;;;;;;;;;;;;4362905;32;20057;-76
2022/03/15 09:28:17;;;;;;;41.35;23.60;;;;;;;;;;4376246;32;19938;-81
2022/03/15 09:30:42;;;;;;;;;;;;;;;;;;4376687;32;20578;-81
2022/03/15 09:33:07;;;;;;;36.45;22.85;;;;;;;;;;4375533;32;19935;-81
2022/03/15 09:35:33;;;;;;;;;;;;;;;;;;4375833;32;20165;-81
2022/03/15 09:38:01;;;;;;;42.20;23.55;;;;;;;;;;4379517;32;19968;-80
2022/03/15 09:40:26;;;;;;;44.92;22.33;;;;;;;;;;4391179;32;20042;-81
2022/03/15 09:42:52;;;;;;;;;;;;;;;;;;4391333;32;20062;-80
2022/03/15 09:45:20;;;;;;;32.65;22.83;;;;;;;;;;4374259;32;19934;-78
2022/03/15 09:47:48;;;;;;;50.15;23.70;;;;;;;;;;4393623;32;20113;-81
2022/03/15 09:50:13;;;;;;;46.00;22.48;;;;;;;;;;4391417;32;20368;-81
2022/03/15 09:52:39;;;;;;;;;;;;;;;;;;4383480;32;20054;-82
2022/03/15 09:55:05;;;;;;;35.80;20.30;;;;;;;;;;4375823;32;19942;-80
2022/03/15 09:57:30;;;;;;;;;;;;;;;;;;4375493;32;20053;-81
2022/03/15 09:59:58;;;;;;;39.60;20.50;;;;;;;;;;4376190;32;20363;-77
2022/03/15 10:02:24;;;;;;;35.25;19.50;;;;;;;;;;4376420;32;20062;-79
2022/03/15 10:04:49;;;;;;;34.38;20.33;;;;;;;;;;4374867;32;20470;-82
2022/03/15 10:07:15;;;;;;;;;;;;;;;;;;4375486;32;20031;-80
2022/03/15 10:09:43;;;;;;;42.83;20.40;;;;;;;;;;4380188;32;19976;-79
2022/03/15 10:12:11;;;;;;;36.85;19.73;;;;;;;;;;4378234;32;20031;-81
2022/03/15 10:14:46;;;;;;;41.17;20.85;;;;;;;;;;4375375;32;20042;-81
2022/03/15 10:17:14;;;;;;;39.60;20.37;;;;;;;;;;4373942;32;20056;-80
2022/03/15 10:19:49;;;;;;;52.42;20.05;;;;;;;;;;4370255;32;20380;-81
2022/03/15 10:22:21;;;;;;;36.40;21.87;;;;;;;;;;4382989;32;20425;-80
2022/03/15 10:24:46;;;;;;;37.17;21.27;;;;;;;;;;4388349;32;20039;-82
2022/03/15 10:27:15;;;;;;;;;;;;;;;;;;4375995;32;20054;-79
2022/03/15 10:29:42;;;;;;;39.42;20.08;;;;;;;;;;4389496;32;19980;-80
2022/03/15 10:32:08;;;;;;;34.17;19.87;;;;;;;;;;4389851;32;20061;-80
2022/03/15 10:34:33;;;;;;;;;;;;;;;;;;4390037;32;20031;-81
2022/03/15 10:36:58;;;;;;;30.90;19.05;;;;;;;;;;4389514;32;19938;-80
2022/03/15 10:39:24;;;;;;;;;;;;;;;;;;4389922;32;20034;-80
2022/03/15 10:41:52;;;;;;;32.88;18.12;;;;;;;;;;4391832;32;20009;-80
2022/03/15 10:44:26;;;;;;;35.38;18.90;;;;;;;;;;4391995;32;20368;-82
2022/03/15 10:46:59;;;;;;;31.75;19.20;;;;;;;;;;4392384;32;20031;-80
2022/03/15 10:49:24;;;;;;;26.33;18.92;;;;;;;;;;4391826;32;20057;-81
2022/03/15 10:51:49;;;;;;;;;;;;;;;;;;4392278;32;20023;-80
2022/03/15 10:54:15;;;;;;;29.87;17.95;;;;;;;;;;4392265;32;19991;-80
2022/03/15 10:56:40;;;;;;;;;;;;;;;;;;4392292;32;20547;-80
2022/03/15 10:59:06;;;;;;;29.92;14.52;;;;;;;;;;4392498;32;19972;-81
2022/03/15 11:01:32;;;;;;;;;;;;;;;;;;4392556;32;20045;-81
2022/03/15 11:03:58;;;;;;;28.60;13.82;;;;;;;;;;4391725;32;20000;-80
2022/03/15 11:06:30;;;;;;;37.30;16.55;;;;;;;;;;4391570;32;20057;-81
2022/03/15 11:08:55;;;;;;;23.52;11.70;;;;;;;;;;4378240;32;20046;-80
2022/03/15 11:11:22;;;;;;;;;;;;;;;;;;4392393;32;20450;-81
2022/03/15 11:13:47;;;;;;;29.35;14.15;;;;;;;;;;4392072;32;19945;-81
2022/03/15 11:16:13;;;;;;;20.15;9.40;;;;;;;;;;4392701;32;20117;-81
2022/03/15 11:18:39;;;;;;;33.38;9.98;;;;;;;;;;4381412;32;20345;-82
2022/03/15 11:21:04;;;;;;;;;;;;;;;;;;4392062;32;20370;-83
2022/03/15 11:23:32;;;;;;;14.23;7.87;;;;;;;;;;4391033;32;19964;-83
2022/03/15 11:26:04;;;;;;;16.33;9.57;;;;;;;;;;4390686;32;20134;-82
2022/03/15 11:28:30;;;;;;;17.48;7.20;;;;;;;;;;4377596;32;20027;-82
2022/03/15 11:30:56;;;;;;;25.00;9.63;;;;;;;;;;4375129;32;20432;-81
2022/03/15 11:33:22;;;;;;;22.83;8.23;;;;;;;;;;4389854;32;20113;-81
2022/03/15 11:35:47;;;;;;;17.05;10.10;;;;;;;;;;4377998;32;20030;-81
2022/03/15 11:38:13;;;;;;;14.15;7.37;;;;;;;;;;4391289;32;20068;-81
2022/03/15 11:40:39;;;;;;;14.35;6.82;;;;;;;;;;4384080;32;20038;-82
2022/03/15 11:43:13;;;;;;;12.07;7.65;;;;;;;;;;4394552;32;20026;-79
2022/03/15 11:45:53;;;;;;;15.02;7.32;;;;;;;;;;4393566;32;20384;-81
2022/03/15 11:48:24;;;;;;;16.73;7.70;;;;;;;;;;4393175;32;20060;-84
2022/03/15 11:51:02;;;;;;;23.92;7.95;;;;;;;;;;4393344;32;20034;-82
2022/03/15 11:53:44;;;;;;;17.62;7.62;;;;;;;;;;4392149;32;20121;-82
2022/03/15 11:56:27;;;;;;;16.73;7.47;;;;;;;;;;4391662;32;20096;-76
2022/03/15 11:59:00;;;;;;;15.32;8.02;;;;;;;;;;4391557;32;20095;-82
2022/03/15 12:01:28;;;;;;;14.68;8.43;;;;;;;;;;4379628;32;20076;-81
2022/03/15 12:03:54;;;;;;;15.43;8.20;;;;;;;;;;4376490;32;20054;-82
2022/03/15 12:06:23;;;;;;;12.77;7.60;;;;;;;;;;4376543;32;20355;-79
2022/03/15 12:08:52;;;;;;;13.60;8.02;;;;;;;;;;4378060;32;20058;-82
2022/03/15 12:11:25;;;;;;;12.27;6.82;;;;;;;;;;4376606;32;20053;-83
2022/03/15 12:13:50;;;;;;;20.83;7.85;;;;;;;;;;4386497;32;20026;-82
2022/03/15 12:16:21;;;;;;;13.57;8.57;;;;;;;;;;4391239;32;20522;-82
2022/03/15 12:18:48;;;;;;;13.80;8.55;;;;;;;;;;4377420;32;20022;-83
2022/03/15 12:21:16;;;;;;;15.50;7.35;;;;;;;;;;4390779;32;20088;-83
2022/03/15 12:23:43;;;;;;;13.07;7.47;;;;;;;;;;4391854;32;20076;-81
2022/03/15 12:26:16;;;;;;;19.83;7.57;;;;;;;;;;4359690;32;20054;-79
2022/03/15 12:28:41;;;;;;;13.68;8.02;;;;;;;;;;4376659;32;20058;-82
2022/03/15 12:31:07;;;;;;;14.27;7.12;;;;;;;;;;4377080;32;20069;-82
2022/03/15 12:33:34;;;;;;;12.18;6.20;;;;;;;;;;4382274;32;20182;-79
2022/03/15 12:36:04;;;;;;;19.12;7.20;;;;;;;;;;4376870;32;20113;-80
2022/03/15 12:38:33;;;;;;;11.50;7.22;;;;;;;;;;4379482;32;20034;-80
2022/03/15 12:41:02;;;;;;;11.57;6.95;;;;;;;;;;4373546;32;20080;-81
2022/03/15 12:43:27;;;;;;;12.95;6.55;;;;;;;;;;4387784;32;20034;-81
2022/03/15 12:45:53;;;;;;;11.98;6.28;;;;;;;;;;4380587;32;20093;-82
2022/03/15 12:48:31;;;;;;;17.45;8.05;;;;;;;;;;4385104;32;20023;-82
2022/03/15 12:51:04;;;;;;;13.40;6.37;;;;;;;;;;4390972;32;20018;-82
2022/03/15 12:53:33;;;;;;;14.27;6.00;;;;;;;;;;4390888;32;20044;-82
2022/03/15 12:56:15;;;;;;;16.25;5.95;;;;;;;;;;4367180;32;20121;-82
2022/03/15 12:58:41;;;;;;;18.10;5.90;;;;;;;;;;4390091;32;20385;-80
2022/03/15 13:01:10;;;;;;;12.50;5.15;;;;;;;;;;4389774;32;20019;-82
2022/03/15 13:03:36;;;;;;;15.52;5.43;;;;;;;;;;4375012;32;20052;-82
2022/03/15 13:06:02;;;;;;;15.20;5.53;;;;;;;;;;4376249;32;20026;-81
2022/03/15 13:08:31;;;;;;;12.13;5.70;;;;;;;;;;4361853;32;20389;-81
2022/03/15 13:11:02;;;;;;;14.55;5.87;;;;;;;;;;4375403;32;20026;-83
2022/03/15 13:13:27;;;;;;;13.27;6.05;;;;;;;;;;4375928;32;20023;-81
2022/03/15 13:16:09;;;;;;;22.48;8.80;;;;;;;;;;4362043;32;20096;-83
2022/03/15 13:18:36;;;;;;;18.52;6.10;;;;;;;;;;4375903;32;20023;-82
2022/03/15 13:21:03;;;;;;;12.85;5.55;;;;;;;;;;4375403;32;20035;-81
2022/03/15 13:23:48;;;;;;;11.18;5.50;;;;;;;;;;4375530;32;20022;-83
2022/03/15 13:26:16;;;;;;;16.52;6.50;;;;;;;;;;4362287;32;20026;-80
2022/03/15 13:28:50;;;;;;;9.38;5.53;;;;;;;;;;4361212;32;20458;-80
2022/03/15 13:31:16;;;;;;;10.48;5.97;;;;;;;;;;4375342;32;20030;-80
2022/03/15 13:33:45;;;;;;;12.13;6.45;;;;;;;;;;4373756;32;20073;-81
2022/03/15 13:36:12;;;;;;;14.65;6.00;;;;;;;;;;4374971;32;20054;-81
2022/03/15 13:38:43;;;;;;;14.95;6.18;;;;;;;;;;4374682;32;20027;-81
2022/03/15 13:41:08;;;;;;;13.77;5.62;;;;;;;;;;4374701;32;20391;-81
2022/03/15 13:43:35;;;;;;;14.05;6.82;;;;;;;;;;4374884;32;20031;-80
2022/03/15 13:46:09;;;;;;;18.05;6.70;;;;;;;;;;4375239;32;20384;-82
2022/03/15 13:48:38;;;;;;;17.77;6.95;;;;;;;;;;4374822;32;20057;-78
2022/03/15 13:51:06;;;;;;;14.55;6.05;;;;;;;;;;4374529;32;20119;-80
2022/03/15 13:53:35;;;;;;;10.88;5.78;;;;;;;;;;4374548;32;20077;-80
2022/03/15 13:56:08;;;;;;;15.38;5.93;;;;;;;;;;4374757;32;20023;-82
2022/03/15 13:58:34;;;;;;;8.52;5.55;;;;;;;;;;4375262;32;20432;-77
2022/03/15 14:01:00;;;;;;;14.60;5.75;;;;;;;;;;4375055;32;20076;-80
2022/03/15 14:03:36;;;;;;;11.80;5.62;;;;;;;;;;4376020;32;20026;-79
2022/03/15 14:06:11;;;;;;;13.10;4.82;;;;;;;;;;4375775;32;20411;-80
2022/03/15 14:08:43;;;;;;;14.35;5.78;;;;;;;;;;4374383;32;20031;-82
2022/03/15 14:11:12;;;;;;;12.37;5.97;;;;;;;;;;4374427;32;20023;-81
2022/03/15 14:13:41;;;;;;;13.70;6.05;;;;;;;;;;4375305;32;20112;-81
2022/03/15 14:16:11;;;;;;;13.77;6.28;;;;;;;;;;4377094;32;20415;-82
2022/03/15 14:18:37;;;;;;;14.55;5.75;;;;;;;;;;4380314;32;20062;-80
2022/03/15 14:21:02;;;;;;;12.65;6.47;;;;;;;;;;4382076;32;20039;-82
2022/03/15 14:23:29;;;;;;;8.88;5.65;;;;;;;;;;4384439;32;20022;-82
2022/03/15 14:25:58;;;;;;;22.48;6.82;;;;;;;;;;4383375;32;20026;-80
2022/03/15 14:28:23;;;;;;;17.02;5.85;;;;;;;;;;4381496;32;20456;-80
2022/03/15 14:30:59;;;;;;;13.52;5.95;;;;;;;;;;4364860;32;20022;-83
2022/03/15 14:33:25;;;;;;;20.70;7.20;;;;;;;;;;4364417;32;20022;-79
2022/03/15 14:35:56;;;;;;;11.60;6.05;;;;;;;;;;4378061;32;20114;-79
2022/03/15 14:38:23;;;;;;;8.30;5.53;;;;;;;;;;4377662;32;20114;-82
2022/03/15 14:40:54;;;;;;;12.85;6.85;;;;;;;;;;4377513;32;20091;-78
2022/03/15 14:43:22;;;;;;;15.30;7.03;;;;;;;;;;4378026;32;20023;-76
2022/03/15 14:45:48;;;;;;;10.60;6.37;;;;;;;;;;4377360;32;20053;-81
2022/03/15 14:48:29;;;;;;;9.77;5.80;;;;;;;;;;4377122;32;20133;-82
2022/03/15 14:50:54;;;;;;;15.77;6.05;;;;;;;;;;4363883;32;20408;-79
2022/03/15 14:53:20;;;;;;;13.98;6.65;;;;;;;;;;4377073;32;20023;-82
2022/03/15 14:55:46;;;;;;;14.95;6.28;;;;;;;;;;4376622;32;20329;-79
2022/03/15 14:58:14;;;;;;;8.13;5.68;;;;;;;;;;4375835;32;20076;-80
2022/03/15 15:00:41;;;;;;;10.65;5.80;;;;;;;;;;4376961;32;20446;-80
2022/03/15 15:03:08;;;;;;;10.05;5.57;;;;;;;;;;4363312;32;20019;-78